^^
Grace C. Lehan Memorial Weather Station Historical Data
Daily Summary for February 8, 2021 Units:  Metric    English   Both
Daily Weekly Monthly Yearly
  High: Low: Average:
Temperature: 6.6 °C -4.4 °C -0.2 °C
Dew Point: -2.4 °C -8 °C -5.6 °C
Humidity: 89% 47% 69%
Wind Speed: 13.7km/h 0km/h 1.9km/h
Wind Gust: 25.7km/h - -
Wind- - WNW
Pressure: 1017.2 hPa 1010.4 hPa -
Precipitation: 0 mm    
 
 
Tabular Data for February 8, 2021
Time Temperature Dew Point Pressure Wind Wind Speed Wind Gust Humidity Rainfall Rate (Hourly) solar
00:04 -2.2 °C -5.2 °C 1016.8 hPa Calm     80% 0 mm 0 W/m2
00:09 -2.3 °C -5.2 °C 1016.8 hPa Calm     80.2% 0 mm 0 W/m2
00:14 -2.3 °C -5.1 °C 1016.8 hPa Calm     81% 0 mm 0 W/m2
00:19 -2.3 °C -5.2 °C 1016.8 hPa Calm     81% 0 mm 0 W/m2
00:24 -2.4 °C -5.2 °C 1016.5 hPa Calm     81% 0 mm 0 W/m2
00:29 -2.4 °C -5.2 °C 1016.5 hPa Calm     81% 0 mm 0 W/m2
00:34 -2.4 °C -5.2 °C 1016.8 hPa Calm     81.4% 0 mm 0 W/m2
00:39 -2.4 °C -5.1 °C 1016.5 hPa Calm     82% 0 mm 0 W/m2
00:44 -2.4 °C -5.1 °C 1016.5 hPa Calm     82% 0 mm 0 W/m2
00:49 -2.5 °C -5.2 °C 1016.5 hPa Calm     82% 0 mm 0 W/m2
00:54 -2.6 °C -5.2 °C 1016.5 hPa Calm     82% 0 mm 0 W/m2
00:59 -2.6 °C -5.2 °C 1016.5 hPa Calm     82% 0 mm 0 W/m2
01:04 -2.7 °C -5.3 °C 1016.5 hPa Calm     82% 0 mm 0 W/m2
01:09 -2.7 °C -5.3 °C 1016.5 hPa Calm     82% 0 mm 0 W/m2
01:14 -2.7 °C -5.3 °C 1016.5 hPa Calm     82% 0 mm 0 W/m2
01:19 -2.7 °C -5.2 °C 1016.5 hPa Calm     83% 0 mm 0 W/m2
01:24 -2.7 °C -5.2 °C 1016.5 hPa Calm     83% 0 mm 0 W/m2
01:29 -2.8 °C -5.3 °C 1016.5 hPa Calm     83% 0 mm 0 W/m2
01:34 -2.8 °C -5.3 °C 1016.5 hPa Calm     83% 0 mm 0 W/m2
01:39 -2.8 °C -5.3 °C 1016.5 hPa Calm     83% 0 mm 0 W/m2
01:44 -2.9 °C -5.3 °C 1016.5 hPa Calm     83% 0 mm 0 W/m2
01:49 -2.9 °C -5.4 °C 1016.5 hPa Calm     83% 0 mm 0 W/m2
01:54 -3 °C -5.4 °C 1016.5 hPa Calm     83% 0 mm 0 W/m2
01:59 -3 °C -5.4 °C 1016.8 hPa Calm     83.2% 0 mm 0 W/m2
02:04 -3.1 °C -5.4 °C 1016.8 hPa Calm     83.4% 0 mm 0 W/m2
02:09 -3.1 °C -5.4 °C 1016.8 hPa Calm     84% 0 mm 0 W/m2
02:14 -3.1 °C -5.4 °C 1017.2 hPa Calm     84% 0 mm 0 W/m2
02:19 -3.1 °C -5.4 °C 1017.2 hPa Calm     84% 0 mm 0 W/m2
02:24 -3.1 °C -5.4 °C 1017.2 hPa Calm     84% 0 mm 0 W/m2
02:29 -3.1 °C -5.4 °C 1017.2 hPa Calm     84% 0 mm 0 W/m2
02:34 -3.1 °C -5.4 °C 1017.2 hPa Calm     84% 0 mm 0 W/m2
02:39 -3.2 °C -5.5 °C 1016.8 hPa NNW 0.2 km/h 3.2 km/h 84% 0 mm 0 W/m2
02:44 -3.2 °C -5.5 °C 1016.8 hPa Calm   3.2 km/h 84% 0 mm 0 W/m2
02:49 -3.2 °C -5.3 °C 1016.8 hPa Calm   3.2 km/h 84.9% 0 mm 0 W/m2
02:54 -3.1 °C -5.3 °C 1016.8 hPa NNW 0.2 km/h 4.8 km/h 84.8% 0 mm 0 W/m2
02:59 -3.1 °C -5.4 °C 1016.8 hPa NNW 0.2 km/h 4.8 km/h 84% 0 mm 0 W/m2
03:04 -3 °C -5.3 °C 1016.8 hPa Calm   4.8 km/h 84% 0 mm 0 W/m2
03:09 -2.9 °C -5.3 °C 1016.8 hPa Calm     84% 0 mm 0 W/m2
03:14 -2.9 °C -5.3 °C 1016.5 hPa NNW 0.2 km/h 1.6 km/h 84% 0 mm 0 W/m2
03:19 -2.9 °C -5.2 °C 1016.5 hPa NNW 0.2 km/h 3.2 km/h 84% 0 mm 0 W/m2
03:24 -2.9 °C -5.3 °C 1016.5 hPa Calm   3.2 km/h 83.3% 0 mm 0 W/m2
03:29 -2.9 °C -5.4 °C 1016.5 hPa Calm   3.2 km/h 83% 0 mm 0 W/m2
03:34 -2.9 °C -5.4 °C 1016.5 hPa Calm   3.2 km/h 83% 0 mm 0 W/m2
03:39 -2.9 °C -5.4 °C 1016.5 hPa NNW 0.2 km/h 4.8 km/h 83% 0 mm 0 W/m2
03:44 -3 °C -5.4 °C 1016.5 hPa Calm   4.8 km/h 83% 0 mm 0 W/m2
03:49 -3 °C -5.5 °C 1016.5 hPa Calm   4.8 km/h 83% 0 mm 0 W/m2
03:54 -3.1 °C -5.6 °C 1016.1 hPa Calm   4.8 km/h 83% 0 mm 0 W/m2
03:59 -3.1 °C -5.6 °C 1016.1 hPa Calm   4.8 km/h 83% 0 mm 0 W/m2
04:04 -3.1 °C -5.4 °C 1016.1 hPa Calm   4.8 km/h 83.8% 0 mm 0 W/m2
04:09 -3.2 °C -5.4 °C 1016.1 hPa Calm     84% 0 mm 0 W/m2
04:14 -3.2 °C -5.5 °C 1016.1 hPa Calm     84% 0 mm 0 W/m2
04:19 -3.2 °C -5.5 °C 1015.8 hPa Calm     84% 0 mm 0 W/m2
04:24 -3.2 °C -5.5 °C 1015.8 hPa Calm     84% 0 mm 0 W/m2
04:29 -3.2 °C -5.4 °C 1015.8 hPa Calm     84% 0 mm 0 W/m2
04:34 -3.1 °C -5.4 °C 1015.8 hPa Calm     84% 0 mm 0 W/m2
04:39 -3.2 °C -5.4 °C 1015.5 hPa Calm     84% 0 mm 0 W/m2
04:44 -3.2 °C -5.5 °C 1015.5 hPa Calm     84% 0 mm 0 W/m2
04:49 -3.2 °C -5.5 °C 1015.5 hPa Calm     84% 0 mm 0 W/m2
04:54 -3.2 °C -5.6 °C 1015.5 hPa Calm     84% 0 mm 0 W/m2
04:59 -3.3 °C -5.6 °C 1015.5 hPa Calm     84% 0 mm 0 W/m2
05:04 -3.3 °C -5.6 °C 1015.8 hPa Calm     84% 0 mm 0 W/m2
05:09 -3.3 °C -5.7 °C 1015.5 hPa NNW 0.2 km/h 3.2 km/h 84% 0 mm 0 W/m2
05:14 -3.4 °C -5.7 °C 1015.5 hPa Calm   3.2 km/h 84% 0 mm 0 W/m2
05:19 -3.4 °C -5.8 °C 1015.8 hPa Calm   3.2 km/h 84% 0 mm 0 W/m2
05:24 -3.5 °C -5.8 °C 1015.8 hPa Calm   3.2 km/h 84% 0 mm 0 W/m2
05:29 -3.6 °C -5.8 °C 1015.8 hPa Calm   3.2 km/h 84% 0 mm 0 W/m2
05:34 -3.7 °C -5.8 °C 1015.8 hPa Calm   3.2 km/h 84.9% 0 mm 0 W/m2
05:39 -3.8 °C -5.9 °C 1015.8 hPa Calm     85% 0 mm 0 W/m2
05:44 -3.8 °C -6 °C 1015.8 hPa Calm     85% 0 mm 0 W/m2
05:49 -3.9 °C -6.1 °C 1015.5 hPa Calm   1.6 km/h 85% 0 mm 0 W/m2
05:54 -3.9 °C -5.9 °C 1015.5 hPa Calm   3.2 km/h 85.8% 0 mm 0 W/m2
05:59 -3.8 °C -5.8 °C 1015.5 hPa Calm   3.2 km/h 86% 0 mm 0 W/m2
06:04 -3.8 °C -5.8 °C 1015.5 hPa Calm   3.2 km/h 86% 0 mm 0 W/m2
06:09 -3.8 °C -5.8 °C 1015.5 hPa Calm     86% 0 mm 0 W/m2
06:14 -3.9 °C -5.9 °C 1015.5 hPa Calm     86% 0 mm 0 W/m2
06:19 -3.9 °C -5.9 °C 1015.5 hPa Calm     86% 0 mm 0 W/m2
06:24 -3.9 °C -5.9 °C 1015.5 hPa Calm     86% 0 mm 0 W/m2
06:29 -3.9 °C -5.9 °C 1015.5 hPa Calm     86% 0 mm 0 W/m2
06:34 -3.9 °C -5.9 °C 1015.8 hPa Calm     86% 0 mm 0 W/m2
06:39 -3.9 °C -5.9 °C 1015.8 hPa NNW 0.2 km/h 3.2 km/h 86% 0 mm 0 W/m2
06:44 -4.1 °C -6.2 °C 1015.8 hPa Calm   3.2 km/h 85.3% 0 mm 0 W/m2
06:49 -4.2 °C -6.2 °C 1015.8 hPa Calm   3.2 km/h 85.6% 0 mm 0 W/m2
06:54 -4.2 °C -6.2 °C 1015.8 hPa Calm   3.2 km/h 86% 0 mm 0 W/m2
06:59 -4.2 °C -6.1 °C 1015.8 hPa Calm   3.2 km/h 86.8% 0 mm 0 W/m2
07:04 -4.2 °C -6.1 °C 1015.8 hPa Calm   3.2 km/h 87% 0 mm 0 W/m2
07:09 -4.2 °C -6.1 °C 1015.5 hPa Calm     87% 0 mm 0 W/m2
07:14 -4.3 °C -6.1 °C 1015.5 hPa Calm     87% 0 mm 0 W/m2
07:19 -4.3 °C -6.1 °C 1015.5 hPa Calm     87% 0 mm 0 W/m2
07:24 -4.3 °C -6.2 °C 1015.5 hPa Calm     87% 0 mm 5 W/m2
07:29 -4.3 °C -6.2 °C 1015.5 hPa Calm     87% 0 mm 7 W/m2
07:34 -4.4 °C -6.2 °C 1015.5 hPa NNW 0.3 km/h 1.6 km/h 87% 0 mm 11 W/m2
07:39 -4.4 °C -6.2 °C 1015.5 hPa Calm   1.6 km/h 87% 0 mm 12 W/m2
07:44 -4.3 °C -6.2 °C 1015.5 hPa NNW 0.5 km/h 4.8 km/h 87.1% 0 mm 18 W/m2
07:49 -4.3 °C -6.1 °C 1015.5 hPa Calm   4.8 km/h 87.4% 0 mm 33 W/m2
07:54 -4.2 °C -5.8 °C 1015.5 hPa Calm   4.8 km/h 87.9% 0 mm 51 W/m2
07:59 -3.9 °C -5.6 °C 1015.8 hPa Calm   4.8 km/h 88.3% 0 mm 63 W/m2
08:00 -3.7 °C -5.2 °C 1015.8 hPa Calm   4.8 km/h 89% 0 mm 49 W/m2
08:09 -2.9 °C -4.6 °C 1015.8 hPa Calm     88.7% 0 mm 97 W/m2
08:14 -2.5 °C -4.3 °C 1015.8 hPa Calm     87.2% 0 mm 116 W/m2
08:19 -2 °C -4.2 °C 1015.8 hPa Calm     84.8% 0 mm 121 W/m2
08:24 -1.7 °C -4.1 °C 1015.8 hPa Calm     83.2% 0 mm 121 W/m2
08:29 -1.3 °C -4 °C 1015.8 hPa Calm     81.8% 0 mm 123 W/m2
08:34 -1.1 °C -4.1 °C 1015.8 hPa Calm   1.6 km/h 79.9% 0 mm 62 W/m2
08:39 -0.9 °C -4.3 °C 1015.5 hPa NE 0.6 km/h 4.8 km/h 78.1% 0 mm 116 W/m2
08:44 -0.8 °C -4.3 °C 1015.5 hPa NE 1.6 km/h 6.4 km/h 77.3% 0 mm 116 W/m2
08:49 -0.7 °C -4.3 °C 1015.5 hPa NNE 0.8 km/h 6.4 km/h 77% 0 mm 127 W/m2
08:54 -0.6 °C -4.1 °C 1015.5 hPa NNE 0.2 km/h 6.4 km/h 77% 0 mm 123 W/m2
08:59 -0.4 °C -4 °C 1015.5 hPa NNE 0.8 km/h 6.4 km/h 76.4% 0 mm 97 W/m2
09:04 -0.3 °C -4.2 °C 1015.5 hPa NNE 0.2 km/h 6.4 km/h 75% 0 mm 134 W/m2
09:09 -0.3 °C -4.2 °C 1015.5 hPa NNW 2.1 km/h 9.7 km/h 75% 0 mm 151 W/m2
09:14 -0.3 °C -4.2 °C 1015.5 hPa NNW 1.3 km/h 9.7 km/h 74.8% 0 mm 142 W/m2
09:19 -0.1 °C -4.2 °C 1015.5 hPa NNW 0.8 km/h 9.7 km/h 74% 0 mm 162 W/m2
09:24 -0.1 °C -4.2 °C 1015.5 hPa Calm   9.7 km/h 73.5% 0 mm 162 W/m2
09:29 -0.1 °C -4.2 °C 1015.5 hPa North 1 km/h 9.7 km/h 73.6% 0 mm 90 W/m2
09:34 0 °C -4.3 °C 1015.5 hPa North 0.5 km/h 9.7 km/h 73% 0 mm 156 W/m2
09:39 0.1 °C -4.2 °C 1015.1 hPa North 1.3 km/h 6.4 km/h 73% 0 mm 181 W/m2
09:44 0.3 °C -4.1 °C 1015.1 hPa North 0.5 km/h 6.4 km/h 72.5% 0 mm 120 W/m2
09:49 0.4 °C -4.2 °C 1015.1 hPa NNW 3.1 km/h 9.7 km/h 71.5% 0 mm 97 W/m2
09:54 0.5 °C -4.2 °C 1015.1 hPa NNW 2.4 km/h 9.7 km/h 71% 0 mm 116 W/m2
09:59 0.6 °C -4.2 °C 1015.1 hPa NNW 1.4 km/h 9.7 km/h 70.6% 0 mm 63 W/m2
10:04 0.7 °C -4.1 °C 1015.1 hPa North 3.5 km/h 9.7 km/h 70.3% 0 mm 81 W/m2
10:09 0.7 °C -4.2 °C 1015.1 hPa North 1.4 km/h 9.7 km/h 69.5% 0 mm 141 W/m2
10:14 0.8 °C -4.3 °C 1015.1 hPa NNW 1.1 km/h 9.7 km/h 69% 0 mm 144 W/m2
10:19 0.9 °C -4.1 °C 1015.1 hPa NNW 3.4 km/h 9.7 km/h 69.4% 0 mm 283 W/m2
10:24 1.2 °C -3.9 °C 1015.1 hPa NNW 0.5 km/h 9.7 km/h 68.6% 0 mm 283 W/m2
10:29 1.5 °C -3.8 °C 1015.1 hPa WNW 1.6 km/h 9.7 km/h 67.9% 0 mm 345 W/m2
10:34 1.8 °C -3.8 °C 1014.8 hPa WNW 1.4 km/h 9.7 km/h 66.2% 0 mm 246 W/m2
10:39 2.1 °C -3.7 °C 1014.4 hPa WNW 1.8 km/h 6.4 km/h 65.2% 0 mm 369 W/m2
10:44 2.4 °C -3.6 °C 1014.4 hPa NW 0.2 km/h 6.4 km/h 64.7% 0 mm 373 W/m2
10:49 2.7 °C -3.5 °C 1014.4 hPa WNW 2.9 km/h 8 km/h 64% 0 mm 452 W/m2
10:54 2.9 °C -3.4 °C 1014.1 hPa NW 1.3 km/h 8 km/h 63% 0 mm 469 W/m2
10:59 3.2 °C -3.1 °C 1014.1 hPa NW 2.4 km/h 8 km/h 63.2% 0 mm 439 W/m2
11:04 3.5 °C -2.9 °C 1013.8 hPa NW 1.4 km/h 8 km/h 63% 0 mm 424 W/m2
11:09 3.9 °C -2.4 °C 1013.8 hPa NW 1.3 km/h 6.4 km/h 63.2% 0 mm 229 W/m2
11:14 4.4 °C -2.7 °C 1013.8 hPa NW 0.2 km/h 6.4 km/h 59.9% 0 mm 348 W/m2
11:19 4.6 °C -2.8 °C 1013.8 hPa WNW 0.8 km/h 9.7 km/h 58.7% 0 mm 348 W/m2
11:24 4.4 °C -3.2 °C 1013.8 hPa West 1.4 km/h 9.7 km/h 57.3% 0 mm 134 W/m2
11:29 4.2 °C -3.6 °C 1013.8 hPa Calm   9.7 km/h 56.9% 0 mm 225 W/m2
11:34 4 °C -3.6 °C 1013.8 hPa West 0.8 km/h 9.7 km/h 57.6% 0 mm 225 W/m2
11:39 3.8 °C -3.8 °C 1013.4 hPa West 1.4 km/h 6.4 km/h 57.7% 0 mm 151 W/m2
11:44 3.7 °C -3.9 °C 1013.1 hPa WNW 2.4 km/h 8 km/h 57.3% 0 mm 176 W/m2
11:49 3.7 °C -3.8 °C 1012.8 hPa WNW 2.9 km/h 14.5 km/h 57.8% 0 mm 188 W/m2
11:54 3.8 °C -3.7 °C 1012.8 hPa WNW 4.3 km/h 17.7 km/h 57.7% 0 mm 207 W/m2
11:59 4.1 °C -3.8 °C 1012.8 hPa NNW 2.7 km/h 17.7 km/h 56.4% 0 mm 185 W/m2
12:00 4.2 °C -3.6 °C 1012.4 hPa Calm   17.7 km/h 57% 0 mm 120 W/m2
12:09 4.6 °C -3.9 °C 1012.8 hPa NW 3.2 km/h 14.5 km/h 54% 0 mm 274 W/m2
12:14 4.7 °C -4 °C 1012.4 hPa NNW 5.8 km/h 14.5 km/h 53.2% 0 mm 229 W/m2
12:19 4.8 °C -4.1 °C 1012.4 hPa NW 4 km/h 14.5 km/h 52.7% 0 mm 606 W/m2
12:24 4.9 °C -3.8 °C 1012.4 hPa WNW 3.4 km/h 14.5 km/h 53.2% 0 mm 610 W/m2
12:29 5.1 °C -3.6 °C 1012.1 hPa NW 4 km/h 14.5 km/h 53.5% 0 mm 564 W/m2
12:34 5.4 °C -3.7 °C 1012.1 hPa NW 6.3 km/h 14.5 km/h 51.8% 0 mm 367 W/m2
12:39 5.5 °C -3.9 °C 1012.1 hPa WNW 2.4 km/h 17.7 km/h 50.7% 0 mm 185 W/m2
12:44 5.6 °C -3.6 °C 1012.1 hPa NW 6.8 km/h 17.7 km/h 51.3% 0 mm 531 W/m2
12:49 5.7 °C -3.9 °C 1012.1 hPa WNW 10.8 km/h 24.1 km/h 49.9% 0 mm 473 W/m2
12:54 5.7 °C -3.9 °C 1012.1 hPa WNW 5.1 km/h 24.1 km/h 49.9% 0 mm 510 W/m2
12:59 5.8 °C -3.9 °C 1012.1 hPa WNW 9.3 km/h 24.1 km/h 49.4% 0 mm 369 W/m2
13:04 5.9 °C -3.9 °C 1012.1 hPa WNW 5 km/h 24.1 km/h 49.2% 0 mm 116 W/m2
13:09 6.1 °C -3.9 °C 1012.1 hPa WNW 5 km/h 17.7 km/h 48.8% 0 mm 116 W/m2
13:14 6.1 °C -3.8 °C 1012.1 hPa WSW 1.4 km/h 17.7 km/h 48.8% 0 mm 232 W/m2
13:19 6.2 °C -3.7 °C 1012.1 hPa WSW 3.4 km/h 17.7 km/h 49% 0 mm 192 W/m2
13:24 6.4 °C -3.6 °C 1012.1 hPa WSW 2.7 km/h 17.7 km/h 48.9% 0 mm 462 W/m2
13:29 6.6 °C -3.5 °C 1012.1 hPa WNW 4 km/h 17.7 km/h 48.6% 0 mm 417 W/m2
13:34 6.6 °C -3.6 °C 1012.1 hPa West 5.6 km/h 17.7 km/h 48.2% 0 mm 441 W/m2
13:39 6.6 °C -3.7 °C 1012.1 hPa WNW 6.9 km/h 22.5 km/h 47.7% 0 mm 371 W/m2
13:44 6.3 °C -4.2 °C 1012.1 hPa WNW 8.7 km/h 22.5 km/h 47% 0 mm 306 W/m2
13:49 5.9 °C -4.2 °C 1012.1 hPa WNW 7.1 km/h 22.5 km/h 48.2% 0 mm 306 W/m2
13:54 5.7 °C -4.3 °C 1011.7 hPa WNW 5.5 km/h 22.5 km/h 48.6% 0 mm 98 W/m2
13:59 5.5 °C -4.4 °C 1011.7 hPa WNW 5.3 km/h 22.5 km/h 49% 0 mm 172 W/m2
14:04 5.3 °C -4.2 °C 1011.7 hPa WNW 4 km/h 22.5 km/h 50.2% 0 mm 144 W/m2
14:09 5.3 °C -4.1 °C 1011.7 hPa WNW 6.3 km/h 22.5 km/h 51% 0 mm 211 W/m2
14:14 5.2 °C -4.3 °C 1011.7 hPa NW 7.9 km/h 22.5 km/h 50% 0 mm 243 W/m2
14:19 5.2 °C -4.3 °C 1012.1 hPa WNW 7.1 km/h 22.5 km/h 50% 0 mm 155 W/m2
14:24 5.2 °C -4.4 °C 1012.1 hPa WNW 9.2 km/h 22.5 km/h 50% 0 mm 179 W/m2
14:29 5.2 °C -4.4 °C 1012.1 hPa WNW 9.5 km/h 22.5 km/h 50% 0 mm 151 W/m2
14:34 5.1 °C -4.5 °C 1012.1 hPa WNW 7.6 km/h 22.5 km/h 50% 0 mm 111 W/m2
14:39 5 °C -4.6 °C 1011.7 hPa WNW 10 km/h 20.9 km/h 50% 0 mm 97 W/m2
14:44 4.8 °C -4.7 °C 1012.1 hPa WNW 9 km/h 20.9 km/h 50% 0 mm 25 W/m2
14:49 4.6 °C -4.6 °C 1011.7 hPa WNW 6.8 km/h 20.9 km/h 51.2% 0 mm 28 W/m2
14:54 4.3 °C -4.6 °C 1011.7 hPa WNW 7.1 km/h 22.5 km/h 52.2% 0 mm 26 W/m2
14:59 4.1 °C -4.7 °C 1011.4 hPa WNW 13.7 km/h 22.5 km/h 52.8% 0 mm 26 W/m2
15:04 3.8 °C -4.8 °C 1011.4 hPa WNW 11.9 km/h 25.7 km/h 53.1% 0 mm 28 W/m2
15:09 3.7 °C -4.8 °C 1011.1 hPa WNW 8.7 km/h 25.7 km/h 53.8% 0 mm 28 W/m2
15:14 3.5 °C -4.9 °C 1011.4 hPa NW 6.4 km/h 25.7 km/h 54% 0 mm 25 W/m2
15:19 3.4 °C -5 °C 1011.4 hPa WNW 6.8 km/h 25.7 km/h 54.2% 0 mm 23 W/m2
15:24 3.3 °C -4.9 °C 1011.1 hPa WNW 8.5 km/h 25.7 km/h 55% 0 mm 26 W/m2
15:29 3.1 °C -4.9 °C 1011.1 hPa WNW 9.2 km/h 25.7 km/h 55.4% 0 mm 26 W/m2
15:34 3 °C -4.9 °C 1011.1 hPa WNW 5.3 km/h 25.7 km/h 56% 0 mm 26 W/m2
15:39 2.9 °C -5 °C 1011.4 hPa WNW 5.6 km/h 16.1 km/h 56% 0 mm 23 W/m2
15:44 2.8 °C -5.1 °C 1011.4 hPa NW 6 km/h 16.1 km/h 56.2% 0 mm 19 W/m2
15:49 2.6 °C -5.1 °C 1011.1 hPa WNW 4.8 km/h 16.1 km/h 57% 0 mm 18 W/m2
15:54 2.5 °C -5.2 °C 1011.1 hPa WNW 5.6 km/h 16.1 km/h 57% 0 mm 18 W/m2
15:59 2.4 °C -5.1 °C 1011.1 hPa WNW 5.8 km/h 16.1 km/h 57.7% 0 mm 18 W/m2
16:00 2.3 °C -5.1 °C 1011.1 hPa West 1.6 km/h 16.1 km/h 58% 0 mm 14 W/m2
16:09 2.2 °C -5.1 °C 1011.1 hPa WNW 4.2 km/h 16.1 km/h 58.5% 0 mm 11 W/m2
16:14 2.1 °C -5.1 °C 1011.1 hPa WNW 4 km/h 16.1 km/h 59% 0 mm 9 W/m2
16:19 1.9 °C -5.2 °C 1011.1 hPa Calm   16.1 km/h 59% 0 mm 9 W/m2
16:24 1.8 °C -5.2 °C 1011.1 hPa WNW 1 km/h 16.1 km/h 59.4% 0 mm 7 W/m2
16:29 1.8 °C -5.2 °C 1011.1 hPa WNW 1 km/h 16.1 km/h 60% 0 mm 5 W/m2
16:34 1.7 °C -5.3 °C 1011.1 hPa WNW 0.3 km/h 16.1 km/h 60% 0 mm 0 W/m2
16:39 1.5 °C -5.3 °C 1011.1 hPa West 1 km/h 9.7 km/h 60.6% 0 mm 0 W/m2
16:44 1.4 °C -5.3 °C 1011.1 hPa Calm   9.7 km/h 61% 0 mm 0 W/m2
16:49 1.3 °C -5.4 °C 1011.1 hPa West 0.8 km/h 9.7 km/h 61% 0 mm 0 W/m2
16:54 1.2 °C -5.4 °C 1011.1 hPa West 0.5 km/h 9.7 km/h 61.7% 0 mm 0 W/m2
16:59 1.1 °C -5.6 °C 1011.1 hPa Calm   9.7 km/h 61% 0 mm 0 W/m2
17:04 0.9 °C -5.5 °C 1011.1 hPa Calm   9.7 km/h 62% 0 mm 0 W/m2
17:09 0.8 °C -5.6 °C 1011.1 hPa Calm   1.6 km/h 62% 0 mm 0 W/m2
17:14 0.7 °C -5.7 °C 1011.1 hPa Calm   1.6 km/h 62% 0 mm 0 W/m2
17:19 0.7 °C -5.8 °C 1011.1 hPa Calm   1.6 km/h 62% 0 mm 0 W/m2
17:24 0.6 °C -5.9 °C 1011.1 hPa Calm   3.2 km/h 62% 0 mm 0 W/m2
17:29 0.4 °C -5.9 °C 1011.1 hPa WNW 0.8 km/h 8 km/h 62% 0 mm 0 W/m2
17:34 0.4 °C -6 °C 1011.1 hPa WNW 3.4 km/h 12.9 km/h 62% 0 mm 0 W/m2
17:39 0.3 °C -6.1 °C 1011.1 hPa WNW 2.7 km/h 12.9 km/h 62% 0 mm 0 W/m2
17:44 0.3 °C -6.1 °C 1011.1 hPa WNW 0.6 km/h 12.9 km/h 62% 0 mm 0 W/m2
17:49 0.3 °C -6.2 °C 1011.1 hPa WNW 0.3 km/h 12.9 km/h 61.4% 0 mm 0 W/m2
17:54 0.3 °C -6.3 °C 1011.1 hPa WNW 0.3 km/h 12.9 km/h 61% 0 mm 0 W/m2
17:59 0.3 °C -6.5 °C 1011.4 hPa Calm   12.9 km/h 60.4% 0 mm 0 W/m2
18:04 0.3 °C -6.6 °C 1011.4 hPa WNW 0.2 km/h 12.9 km/h 60% 0 mm 0 W/m2
18:09 0.2 °C -6.6 °C 1011.4 hPa WNW 1.6 km/h 8 km/h 60% 0 mm 0 W/m2
18:14 0.2 °C -6.8 °C 1011.4 hPa NW 1.6 km/h 8 km/h 59.3% 0 mm 0 W/m2
18:19 0.2 °C -6.9 °C 1011.1 hPa NW 3.9 km/h 16.1 km/h 58.6% 0 mm 0 W/m2
18:24 0.3 °C -7.1 °C 1011.1 hPa NW 4.8 km/h 16.1 km/h 57.9% 0 mm 0 W/m2
18:29 0.4 °C -7.3 °C 1011.4 hPa NW 7.4 km/h 19.3 km/h 56.2% 0 mm 0 W/m2
18:34 0.5 °C -7.4 °C 1011.4 hPa NW 5.8 km/h 19.3 km/h 55.2% 0 mm 0 W/m2
18:39 0.6 °C -7.4 °C 1011.4 hPa NW 6.4 km/h 19.3 km/h 55% 0 mm 0 W/m2
18:44 0.6 °C -7.5 °C 1011.4 hPa NW 4.5 km/h 19.3 km/h 54.5% 0 mm 0 W/m2
18:49 0.6 °C -7.6 °C 1011.4 hPa NW 6.4 km/h 25.7 km/h 54.4% 0 mm 0 W/m2
18:54 0.6 °C -7.7 °C 1011.4 hPa WNW 2.7 km/h 25.7 km/h 53.9% 0 mm 0 W/m2
18:59 0.6 °C -7.8 °C 1011.4 hPa NW 3.7 km/h 25.7 km/h 53.5% 0 mm 0 W/m2
19:04 0.6 °C -7.8 °C 1011.4 hPa NW 2.3 km/h 25.7 km/h 53.7% 0 mm 0 W/m2
19:09 0.5 °C -7.9 °C 1011.7 hPa NW 1.8 km/h 9.7 km/h 53.4% 0 mm 0 W/m2
19:14 0.4 °C -7.9 °C 1011.7 hPa NW 1.4 km/h 9.7 km/h 53.6% 0 mm 0 W/m2
19:19 0.3 °C -7.9 °C 1011.7 hPa NW 1.6 km/h 9.7 km/h 54% 0 mm 0 W/m2
19:24 0.3 °C -7.9 °C 1011.7 hPa WNW 3.1 km/h 9.7 km/h 54.2% 0 mm 0 W/m2
19:29 0.2 °C -7.8 °C 1011.7 hPa WNW 3.4 km/h 9.7 km/h 55% 0 mm 0 W/m2
19:34 0.1 °C -7.9 °C 1011.7 hPa WNW 5.8 km/h 14.5 km/h 55% 0 mm 0 W/m2
19:39 0 °C -8 °C 1011.7 hPa NW 3.4 km/h 14.5 km/h 55% 0 mm 0 W/m2
19:44 -0.1 °C -7.8 °C 1011.4 hPa WNW 3.1 km/h 14.5 km/h 55.9% 0 mm 0 W/m2
19:49 -0.2 °C -7.9 °C 1011.7 hPa WNW 2.1 km/h 14.5 km/h 56% 0 mm 0 W/m2
19:54 -0.2 °C -7.8 °C 1011.4 hPa WNW 5 km/h 14.5 km/h 56.7% 0 mm 0 W/m2
19:59 -0.3 °C -7.8 °C 1011.4 hPa WNW 4 km/h 14.5 km/h 57% 0 mm 0 W/m2
20:04 -0.4 °C -7.9 °C 1011.4 hPa NW 3.2 km/h 3.2 km/h 57% 0 mm 0 W/m2
20:09 -0.4 °C -7.8 °C 1011.4 hPa NW 3.5 km/h 14.5 km/h 57.3% 0 mm 0 W/m2
20:14 -0.5 °C -7.8 °C 1011.4 hPa NW 7.7 km/h 19.3 km/h 58% 0 mm 0 W/m2
20:19 -0.6 °C -7.7 °C 1011.4 hPa WNW 4.8 km/h 19.3 km/h 58.6% 0 mm 0 W/m2
20:24 -0.7 °C -7.7 °C 1011.4 hPa WNW 6.3 km/h 19.3 km/h 59% 0 mm 0 W/m2
20:29 -0.8 °C -7.7 °C 1011.4 hPa NW 4 km/h 19.3 km/h 59.2% 0 mm 0 W/m2
20:34 -0.8 °C -7.6 °C 1011.1 hPa NW 6.3 km/h 19.3 km/h 60% 0 mm 0 W/m2
20:39 -0.8 °C -7.6 °C 1011.1 hPa NW 5 km/h 17.7 km/h 60% 0 mm 0 W/m2
20:44 -0.8 °C -7.6 °C 1011.1 hPa NW 4.7 km/h 17.7 km/h 60% 0 mm 0 W/m2
20:49 -0.8 °C -7.7 °C 1011.1 hPa WNW 3.4 km/h 17.7 km/h 60% 0 mm 0 W/m2
20:54 -0.9 °C -7.7 °C 1011.1 hPa NW 0.6 km/h 17.7 km/h 60% 0 mm 0 W/m2
20:59 -0.9 °C -7.7 °C 1011.1 hPa NW 1.1 km/h 17.7 km/h 60% 0 mm 0 W/m2
21:04 -0.9 °C -7.6 °C 1011.1 hPa NW 0.8 km/h 17.7 km/h 60.5% 0 mm 0 W/m2
21:09 -1 °C -7.6 °C 1011.1 hPa NW 0.3 km/h 8 km/h 60.9% 0 mm 0 W/m2
21:14 -1.1 °C -7.6 °C 1011.1 hPa NW 0.5 km/h 8 km/h 61% 0 mm 0 W/m2
21:19 -1.1 °C -7.6 °C 1011.1 hPa NW 0.5 km/h 8 km/h 61% 0 mm 0 W/m2
21:24 -1.1 °C -7.6 °C 1011.1 hPa NW 1.8 km/h 8 km/h 61.2% 0 mm 0 W/m2
21:29 -1.1 °C -7.4 °C 1011.1 hPa NW 0.6 km/h 9.7 km/h 62% 0 mm 0 W/m2
21:34 -1.2 °C -7.5 °C 1011.1 hPa NW 0.3 km/h 9.7 km/h 62% 0 mm 0 W/m2
21:39 -1.2 °C -7.6 °C 1011.1 hPa NW 0.3 km/h 4.8 km/h 62% 0 mm 0 W/m2
21:44 -1.2 °C -7.4 °C 1011.1 hPa NW 0.5 km/h 4.8 km/h 62.7% 0 mm 0 W/m2
21:49 -1.3 °C -7.1 °C 1010.7 hPa NW 1 km/h 9.7 km/h 64.7% 0 mm 0 W/m2
21:54 -1.2 °C -6.3 °C 1010.7 hPa NW 1.8 km/h 9.7 km/h 68.6% 0 mm 0 W/m2
21:59 -1.2 °C -6.1 °C 1010.7 hPa NW 0.8 km/h 9.7 km/h 69.2% 0 mm 0 W/m2
22:04 -1.1 °C -5.9 °C 1010.7 hPa NW 0.3 km/h 9.7 km/h 69.8% 0 mm 0 W/m2
22:09 -1.1 °C -5.6 °C 1010.7 hPa Calm   4.8 km/h 71.2% 0 mm 0 W/m2
22:14 -1 °C -5.4 °C 1010.7 hPa NW 0.2 km/h 4.8 km/h 71.7% 0 mm 0 W/m2
22:19 -1 °C -5.7 °C 1010.7 hPa Calm   4.8 km/h 70.5% 0 mm 0 W/m2
22:24 -1 °C -5.9 °C 1010.7 hPa Calm   4.8 km/h 69.3% 0 mm 0 W/m2
22:29 -1 °C -6.3 °C 1010.7 hPa Calm   4.8 km/h 67.1% 0 mm 0 W/m2
22:34 -1.1 °C -6.7 °C 1010.7 hPa Calm   4.8 km/h 65.4% 0 mm 0 W/m2
22:39 -1.1 °C -6.8 °C 1010.7 hPa Calm     65% 0 mm 0 W/m2
22:44 -1.2 °C -7.1 °C 1010.7 hPa Calm     64.2% 0 mm 0 W/m2
22:49 -1.2 °C -7 °C 1010.4 hPa Calm     65% 0 mm 0 W/m2
22:54 -1.3 °C -7 °C 1010.4 hPa Calm     65% 0 mm 0 W/m2
22:59 -1.3 °C -7.1 °C 1010.4 hPa Calm     65% 0 mm 0 W/m2
23:00 -1.3 °C -7.1 °C 1010.4 hPa Calm     65% 0 mm 0 W/m2
23:09 -1.4 °C -7.3 °C 1010.4 hPa Calm     64% 0 mm 0 W/m2
23:14 -1.6 °C -7.4 °C 1010.4 hPa Calm     64% 0 mm 0 W/m2
23:19 -1.6 °C -7.6 °C 1010.4 hPa Calm     64% 0 mm 0 W/m2
23:24 -1.7 °C -7.7 °C 1010.4 hPa Calm     64% 0 mm 0 W/m2
23:29 -1.8 °C -7.7 °C 1010.4 hPa Calm     64% 0 mm 0 W/m2
23:34 -1.9 °C -7.7 °C 1010.4 hPa Calm     64.9% 0 mm 0 W/m2
23:39 -2.1 °C -7.8 °C 1010.4 hPa Calm     65% 0 mm 0 W/m2
23:44 -2.2 °C -7.7 °C 1010.4 hPa Calm     65.9% 0 mm 0 W/m2
23:49 -2.3 °C -7.8 °C 1010.4 hPa Calm     65.9% 0 mm 0 W/m2
23:54 -2.3 °C -7.8 °C 1010.4 hPa Calm     66% 0 mm 0 W/m2
23:59 -2.4 °C -7.8 °C 1010.4 hPa NW 0.2 km/h 3.2 km/h 66% 0 mm 0 W/m2
Hartford County Weather
Compliments of Weather Underground - 2 mb